createdAt,value
2022-08-17T00:00:42.771Z,16.50
2022-08-17T00:03:10.578Z,16.40
2022-08-17T00:05:43.594Z,16.30
2022-08-17T00:08:12.022Z,16.20
2022-08-17T00:10:40.522Z,16.20
2022-08-17T00:13:10.785Z,16.10
2022-08-17T00:15:39.074Z,16.10
2022-08-17T00:19:06.680Z,16.10
2022-08-17T00:20:57.858Z,16.10
2022-08-17T00:23:26.953Z,16.30
2022-08-17T00:25:55.381Z,16.40
2022-08-17T00:28:23.318Z,16.30
2022-08-17T00:30:53.590Z,16.40
2022-08-17T00:33:26.116Z,16.40
2022-08-17T00:35:55.328Z,16.30
2022-08-17T00:38:24.381Z,16.30
2022-08-17T00:40:55.906Z,16.40
2022-08-17T00:43:30.874Z,16.50
2022-08-17T00:46:00.081Z,16.40
2022-08-17T00:48:30.893Z,16.30
2022-08-17T00:51:06.573Z,16.10
2022-08-17T00:53:37.390Z,16.20
2022-08-17T00:56:09.032Z,16.20
2022-08-17T00:58:37.840Z,16.20
2022-08-17T01:01:07.681Z,16.10
2022-08-17T01:03:38.434Z,15.90
2022-08-17T01:06:09.104Z,16.00
2022-08-17T01:08:39.205Z,16.00
2022-08-17T01:11:08.164Z,15.90
2022-08-17T01:13:41.478Z,15.80
2022-08-17T01:16:15.927Z,15.80
2022-08-17T01:18:47.817Z,15.70
2022-08-17T01:21:22.212Z,15.60
2022-08-17T01:23:51.583Z,15.60
2022-08-17T01:26:20.114Z,15.50
2022-08-17T01:28:54.829Z,15.40
2022-08-17T01:31:25.314Z,15.30
2022-08-17T01:33:53.443Z,15.40
2022-08-17T01:36:21.829Z,15.50
2022-08-17T01:38:51.069Z,15.60
2022-08-17T01:41:22.576Z,15.60
2022-08-17T01:43:53.032Z,15.60
2022-08-17T01:46:24.462Z,15.50
2022-08-17T01:48:52.491Z,15.50
2022-08-17T01:51:21.527Z,15.40
2022-08-17T01:53:53.262Z,15.30
2022-08-17T01:56:24.266Z,15.30
2022-08-17T01:58:52.340Z,15.20
2022-08-17T02:01:22.993Z,15.10
2022-08-17T02:03:59.686Z,15.10
2022-08-17T02:06:31.660Z,15.30
2022-08-17T02:09:23.231Z,15.50
2022-08-17T02:11:54.127Z,15.60
2022-08-17T02:14:22.721Z,15.70
2022-08-17T02:16:51.287Z,15.80
2022-08-17T02:19:19.852Z,15.90
2022-08-17T02:21:50.203Z,15.70
2022-08-17T02:24:59.567Z,15.70
2022-08-17T02:27:12.055Z,15.60
2022-08-17T02:29:40.016Z,15.50
2022-08-17T02:32:25.465Z,15.50
2022-08-17T02:34:57.252Z,15.50
2022-08-17T02:37:25.618Z,15.50
2022-08-17T02:39:56.933Z,15.70
2022-08-17T02:42:28.522Z,15.70
2022-08-17T02:44:56.521Z,15.80
2022-08-17T02:47:25.081Z,15.80
2022-08-17T02:49:54.355Z,15.80
2022-08-17T02:52:43.162Z,15.70
2022-08-17T02:55:16.307Z,15.50
2022-08-17T02:57:46.741Z,15.30
2022-08-17T03:00:18.126Z,15.20
2022-08-17T03:02:46.875Z,15.00
2022-08-17T03:05:17.580Z,14.90
2022-08-17T03:07:45.662Z,14.90
2022-08-17T03:10:16.508Z,14.90
2022-08-17T03:12:45.739Z,14.80
2022-08-17T03:15:16.296Z,14.90
2022-08-17T03:17:44.849Z,14.90
2022-08-17T03:20:13.755Z,14.80
2022-08-17T03:22:47.875Z,14.80
2022-08-17T03:25:25.617Z,14.90
2022-08-17T03:27:54.141Z,14.90
2022-08-17T03:30:23.421Z,15.00
2022-08-17T03:32:54.774Z,15.10
2022-08-17T03:35:25.002Z,15.30
2022-08-17T03:38:00.932Z,15.40
2022-08-17T03:40:58.057Z,15.50
2022-08-17T03:43:21.069Z,15.50
2022-08-17T03:46:10.792Z,15.60
2022-08-17T03:49:12.130Z,15.50
2022-08-17T03:51:57.649Z,15.30
2022-08-17T03:54:43.234Z,15.10
2022-08-17T03:57:13.273Z,15.00
2022-08-17T03:59:41.917Z,14.90
2022-08-17T04:02:13.662Z,14.70
2022-08-17T04:04:41.596Z,14.60
2022-08-17T04:07:10.046Z,14.70
2022-08-17T04:09:38.129Z,14.60
2022-08-17T04:12:06.879Z,14.60
2022-08-17T04:14:53.521Z,14.60
2022-08-17T04:17:24.402Z,14.70
2022-08-17T04:19:52.654Z,14.60
2022-08-17T04:22:32.817Z,14.50
2022-08-17T04:25:11.110Z,14.40
2022-08-17T04:27:39.080Z,14.30
2022-08-17T04:30:09.916Z,14.40
2022-08-17T04:33:04.849Z,14.50
2022-08-17T04:35:37.081Z,14.60
2022-08-17T04:38:05.222Z,14.60
2022-08-17T04:40:51.013Z,14.80
2022-08-17T04:43:22.330Z,14.70
2022-08-17T04:45:55.807Z,14.90
2022-08-17T04:48:34.764Z,15.00
2022-08-17T04:51:07.903Z,15.00
2022-08-17T04:53:36.105Z,15.30
2022-08-17T04:56:04.634Z,15.50
2022-08-17T04:58:32.838Z,15.80
2022-08-17T05:01:02.414Z,16.00
2022-08-17T05:03:30.999Z,16.20
2022-08-17T05:05:59.209Z,16.50
2022-08-17T05:08:27.127Z,16.80
2022-08-17T05:10:55.104Z,17.00
2022-08-17T05:13:25.171Z,17.30
2022-08-17T05:15:55.908Z,17.50
2022-08-17T05:18:25.886Z,17.80
2022-08-17T05:20:54.365Z,17.80
2022-08-17T05:23:25.058Z,17.90
2022-08-17T05:25:55.620Z,17.90
2022-08-17T05:28:27.601Z,18.00
2022-08-17T05:30:57.905Z,18.20
2022-08-17T05:33:29.802Z,18.40
2022-08-17T05:35:59.702Z,18.40
2022-08-17T05:38:30.081Z,18.40
2022-08-17T05:40:59.337Z,18.60
2022-08-17T05:43:30.009Z,18.80
2022-08-17T05:46:05.310Z,19.10
2022-08-17T05:48:43.531Z,19.20
2022-08-17T05:51:31.597Z,19.50
2022-08-17T05:54:10.745Z,19.80
2022-08-17T05:57:00.370Z,20.20
2022-08-17T05:59:43.094Z,20.60
2022-08-17T06:02:21.892Z,21.00
2022-08-17T06:05:10.245Z,21.40
2022-08-17T06:07:49.295Z,21.70
2022-08-17T06:10:24.624Z,21.90
2022-08-17T06:13:04.578Z,22.10
2022-08-17T06:15:40.525Z,22.40
2022-08-17T06:18:15.909Z,22.70
2022-08-17T06:20:53.139Z,22.80
2022-08-17T06:23:26.999Z,23.00
2022-08-17T06:25:59.675Z,23.20
2022-08-17T06:28:32.251Z,23.40
2022-08-17T06:31:07.350Z,23.60
2022-08-17T06:33:39.398Z,23.40
2022-08-17T06:36:23.549Z,23.40
2022-08-17T06:39:04.089Z,23.20
2022-08-17T06:41:41.780Z,23.20
2022-08-17T06:44:44.766Z,23.40
2022-08-17T06:47:28.559Z,23.80
2022-08-17T06:50:15.526Z,24.20
2022-08-17T06:52:52.531Z,24.80
2022-08-17T06:55:26.248Z,25.30
2022-08-17T06:57:59.911Z,25.60
2022-08-17T07:00:33.606Z,26.00
2022-08-17T07:03:11.170Z,26.40
2022-08-17T07:05:44.854Z,26.70
2022-08-17T07:08:19.820Z,27.00
2022-08-17T07:10:52.021Z,27.20
2022-08-17T07:13:34.712Z,27.60
2022-08-17T07:16:14.699Z,27.80
2022-08-17T07:18:43.763Z,27.90
2022-08-17T07:21:26.226Z,28.30
2022-08-17T07:24:07.880Z,28.50
2022-08-17T07:26:35.841Z,28.70
2022-08-17T07:29:03.926Z,28.90
2022-08-17T07:31:33.500Z,29.10
2022-08-17T07:34:06.910Z,29.40
2022-08-17T07:36:34.959Z,29.60
2022-08-17T07:39:05.736Z,30.00
2022-08-17T07:41:57.543Z,29.80
2022-08-17T07:44:27.576Z,29.60
2022-08-17T07:47:13.788Z,29.70
2022-08-17T07:49:46.048Z,29.80
2022-08-17T07:52:51.166Z,30.00
2022-08-17T07:55:30.875Z,30.10
2022-08-17T07:58:00.614Z,30.20
2022-08-17T08:00:32.259Z,30.20
2022-08-17T08:03:15.546Z,30.20
2022-08-17T08:05:55.952Z,30.70
2022-08-17T08:08:30.988Z,31.00
2022-08-17T08:11:04.049Z,31.10
2022-08-17T08:13:33.208Z,31.40
2022-08-17T08:16:25.787Z,31.60
2022-08-17T08:18:57.558Z,31.30
2022-08-17T08:21:46.438Z,30.90
2022-08-17T08:24:31.172Z,30.50
2022-08-17T08:27:09.169Z,30.30
2022-08-17T08:29:44.175Z,30.10
2022-08-17T08:32:20.152Z,29.90
2022-08-17T08:35:01.810Z,29.80
2022-08-17T08:37:48.454Z,29.80
2022-08-17T08:40:39.304Z,30.00
2022-08-17T08:43:20.191Z,30.50
2022-08-17T08:45:56.681Z,30.80
2022-08-17T08:48:52.964Z,31.20
2022-08-17T08:51:36.142Z,31.80
2022-08-17T08:54:13.501Z,32.20
2022-08-17T08:57:11.553Z,32.40
2022-08-17T08:59:44.239Z,32.40
2022-08-17T09:02:24.667Z,32.70
2022-08-17T09:05:14.403Z,33.00
2022-08-17T09:07:57.312Z,33.10
2022-08-17T09:10:30.407Z,33.60
2022-08-17T09:13:10.300Z,33.70
2022-08-17T09:15:45.294Z,33.80
2022-08-17T09:19:02.960Z,34.50
2022-08-17T09:21:12.696Z,34.30
2022-08-17T09:23:45.697Z,34.00
2022-08-17T09:26:22.893Z,33.80
2022-08-17T09:28:53.179Z,33.80
2022-08-17T09:31:32.759Z,33.80
2022-08-17T09:34:04.130Z,34.20
2022-08-17T09:36:36.606Z,34.30
2022-08-17T09:39:11.039Z,34.20
2022-08-17T09:41:49.030Z,34.30
2022-08-17T09:44:27.819Z,34.60
2022-08-17T09:47:04.474Z,34.60
2022-08-17T09:49:36.482Z,34.20
2022-08-17T09:52:10.934Z,33.70
2022-08-17T09:54:41.202Z,33.40
2022-08-17T09:57:31.516Z,33.50
2022-08-17T10:00:16.296Z,33.30
2022-08-17T10:03:06.018Z,32.80
2022-08-17T10:05:41.326Z,32.50
2022-08-17T10:08:25.538Z,32.40
2022-08-17T10:11:05.592Z,31.80
2022-08-17T10:13:39.334Z,31.40
2022-08-17T10:16:19.769Z,31.00
2022-08-17T10:19:02.043Z,30.80
2022-08-17T10:21:50.335Z,30.60
2022-08-17T10:25:01.970Z,30.50
2022-08-17T10:27:44.042Z,30.30
2022-08-17T10:30:16.726Z,30.00
2022-08-17T10:32:49.485Z,29.60
2022-08-17T10:35:33.877Z,29.50
2022-08-17T10:38:26.697Z,29.60
2022-08-17T10:40:58.889Z,29.80
2022-08-17T10:43:38.439Z,30.10
2022-08-17T10:46:31.146Z,30.30
2022-08-17T10:49:24.723Z,30.40
2022-08-17T10:51:55.327Z,30.60
2022-08-17T10:54:48.164Z,30.70
2022-08-17T10:57:37.261Z,31.10
2022-08-17T11:00:12.979Z,31.30
2022-08-17T11:02:49.591Z,31.80
2022-08-17T11:05:33.971Z,32.20
2022-08-17T11:08:38.393Z,31.80
2022-08-17T11:11:37.445Z,31.50
2022-08-17T11:14:23.886Z,31.60
2022-08-17T11:17:07.255Z,31.40
2022-08-17T11:20:05.073Z,31.20
2022-08-17T11:23:07.446Z,30.90
2022-08-17T11:25:39.483Z,30.70
2022-08-17T11:28:16.010Z,30.50
2022-08-17T11:30:53.255Z,30.30
2022-08-17T11:34:09.155Z,30.40
2022-08-17T11:37:12.342Z,30.40
2022-08-17T11:40:05.774Z,30.50
2022-08-17T11:42:52.584Z,30.70
2022-08-17T11:45:33.970Z,30.80
2022-08-17T11:48:28.304Z,30.80
2022-08-17T11:51:24.268Z,30.80
2022-08-17T11:57:00.229Z,30.50
2022-08-17T12:00:00.335Z,30.40
2022-08-17T12:02:42.414Z,30.30
2022-08-17T12:05:32.370Z,30.30
2022-08-17T12:08:17.737Z,30.40
2022-08-17T12:11:09.061Z,30.40
2022-08-17T12:13:48.005Z,30.40
2022-08-17T12:16:18.191Z,30.40
2022-08-17T12:18:53.862Z,30.40
2022-08-17T12:21:45.116Z,30.40
2022-08-17T12:24:29.182Z,30.60
2022-08-17T12:26:59.841Z,30.40
2022-08-17T12:29:35.819Z,30.50
2022-08-17T12:32:13.950Z,30.50
2022-08-17T12:34:44.982Z,30.70
2022-08-17T12:37:18.567Z,30.60
2022-08-17T12:39:53.489Z,30.70
2022-08-17T12:42:29.277Z,31.00
2022-08-17T12:44:57.290Z,31.00
2022-08-17T12:47:26.117Z,31.10
2022-08-17T12:50:28.588Z,31.10
2022-08-17T12:53:01.727Z,30.90
2022-08-17T12:55:33.936Z,30.50
2022-08-17T12:58:02.615Z,30.30
2022-08-17T13:00:32.767Z,30.10
2022-08-17T13:03:03.298Z,29.90
2022-08-17T13:05:36.043Z,29.70
2022-08-17T13:08:13.625Z,29.50
2022-08-17T13:10:41.981Z,29.50
2022-08-17T13:13:21.235Z,29.30
2022-08-17T13:15:54.270Z,29.10
2022-08-17T13:18:44.420Z,28.90
2022-08-17T13:21:26.846Z,28.60
2022-08-17T13:24:00.754Z,28.30
2022-08-17T13:26:33.916Z,27.90
2022-08-17T13:29:05.740Z,27.60
2022-08-17T13:31:44.065Z,27.30
2022-08-17T13:34:34.380Z,27.00
2022-08-17T13:37:26.932Z,26.80
2022-08-17T13:39:56.332Z,26.70
2022-08-17T13:42:32.949Z,26.60
2022-08-17T13:45:02.415Z,26.50
2022-08-17T13:47:50.507Z,26.40
2022-08-17T13:50:21.681Z,26.40
2022-08-17T13:52:52.293Z,26.40
2022-08-17T13:55:22.957Z,26.40
2022-08-17T13:58:06.475Z,26.60
2022-08-17T14:00:37.334Z,26.80
2022-08-17T14:03:06.299Z,26.90
2022-08-17T14:05:38.050Z,27.00
2022-08-17T14:08:07.729Z,27.20
2022-08-17T14:10:36.389Z,27.20
2022-08-17T14:13:04.707Z,27.30
2022-08-17T14:15:56.179Z,27.40
2022-08-17T14:18:35.458Z,27.50
2022-08-17T14:21:10.651Z,27.60
2022-08-17T14:23:40.828Z,27.60
2022-08-17T14:26:11.551Z,27.60
2022-08-17T14:28:54.540Z,27.60
2022-08-17T14:31:22.855Z,27.50
2022-08-17T14:33:51.421Z,27.50
2022-08-17T14:36:19.384Z,27.50
2022-08-17T14:38:48.631Z,27.50
2022-08-17T14:41:21.968Z,27.40
2022-08-17T14:43:52.895Z,27.30
2022-08-17T14:46:20.860Z,27.20
2022-08-17T14:48:52.724Z,27.10
2022-08-17T14:51:24.121Z,27.00
2022-08-17T14:53:53.429Z,26.90
2022-08-17T14:56:21.351Z,26.90
2022-08-17T14:58:49.234Z,26.80
2022-08-17T15:01:17.192Z,26.80
2022-08-17T15:03:45.221Z,26.70
2022-08-17T15:06:14.671Z,26.70
2022-08-17T15:08:44.546Z,26.60
2022-08-17T15:11:14.927Z,26.60
2022-08-17T15:13:52.075Z,26.50
2022-08-17T15:16:21.029Z,26.40
2022-08-17T15:18:49.108Z,26.40
2022-08-17T15:21:18.141Z,26.30
2022-08-17T15:23:46.638Z,26.30
2022-08-17T15:26:16.842Z,26.40
2022-08-17T15:28:44.779Z,26.40
2022-08-17T15:31:31.976Z,26.50
2022-08-17T15:34:00.824Z,26.80
2022-08-17T15:36:28.913Z,27.00
2022-08-17T15:38:57.269Z,27.20
2022-08-17T15:41:28.148Z,27.30
2022-08-17T15:43:56.915Z,27.30
2022-08-17T15:46:26.575Z,27.40
2022-08-17T15:48:58.228Z,27.50
2022-08-17T15:51:28.329Z,27.50
2022-08-17T15:53:58.485Z,27.60
2022-08-17T15:56:28.744Z,27.60
2022-08-17T15:58:56.617Z,27.60
2022-08-17T16:02:24.775Z,27.70
2022-08-17T16:04:26.653Z,27.70
2022-08-17T16:06:58.713Z,27.60
2022-08-17T16:09:26.615Z,27.60
2022-08-17T16:11:56.436Z,27.60
2022-08-17T16:14:24.653Z,27.60
2022-08-17T16:17:01.521Z,27.60
2022-08-17T16:19:29.417Z,27.50
2022-08-17T16:21:57.540Z,27.50
2022-08-17T16:24:25.469Z,27.40
2022-08-17T16:26:55.517Z,27.30
2022-08-17T16:29:25.007Z,27.30
2022-08-17T16:31:53.361Z,27.20
2022-08-17T16:34:21.471Z,27.10
2022-08-17T16:36:54.996Z,27.10
2022-08-17T16:39:25.719Z,27.00
2022-08-17T16:41:53.683Z,26.90
2022-08-17T16:44:23.724Z,26.80
2022-08-17T16:46:51.614Z,26.70
2022-08-17T16:49:35.574Z,26.60
2022-08-17T16:52:07.571Z,26.50
2022-08-17T16:54:37.906Z,26.40
2022-08-17T16:57:06.197Z,26.30
2022-08-17T16:59:39.642Z,26.20
2022-08-17T17:02:14.273Z,26.10
2022-08-17T17:04:47.488Z,26.10
2022-08-17T17:07:33.747Z,26.00
2022-08-17T17:10:05.827Z,26.00
2022-08-17T17:12:59.534Z,25.90
2022-08-17T17:15:28.128Z,25.90
2022-08-17T17:18:06.936Z,25.80
2022-08-17T17:20:44.007Z,25.80
2022-08-17T17:23:19.047Z,25.70
2022-08-17T17:26:03.547Z,25.60
2022-08-17T17:28:43.515Z,25.60
2022-08-17T17:31:16.952Z,25.50
2022-08-17T17:33:48.379Z,25.40
2022-08-17T17:36:25.256Z,25.20
2022-08-17T17:38:55.286Z,25.10
2022-08-17T17:41:29.138Z,24.90
2022-08-17T17:44:03.034Z,24.80
2022-08-17T17:46:37.843Z,24.60
2022-08-17T17:49:06.250Z,24.60
2022-08-17T17:52:06.484Z,24.40
2022-08-17T17:54:43.958Z,24.30
2022-08-17T17:57:21.295Z,24.20
2022-08-17T17:59:58.195Z,24.10
2022-08-17T18:02:52.119Z,23.90
2022-08-17T18:05:49.607Z,23.80
2022-08-17T18:08:34.286Z,23.70
2022-08-17T18:11:13.685Z,23.60
2022-08-17T18:14:10.632Z,23.50
2022-08-17T18:16:42.837Z,23.30
2022-08-17T18:19:15.105Z,23.10
2022-08-17T18:21:46.444Z,22.90
2022-08-17T18:24:15.013Z,22.80
2022-08-17T18:26:47.921Z,22.80
2022-08-17T18:29:34.375Z,22.80
2022-08-17T18:32:37.028Z,22.80
2022-08-17T18:35:30.481Z,22.80
2022-08-17T18:38:20.501Z,22.70
2022-08-17T18:40:59.527Z,22.50
2022-08-17T18:43:44.036Z,22.30
2022-08-17T18:46:30.185Z,22.10
2022-08-17T18:49:00.690Z,21.90
2022-08-17T18:51:42.318Z,21.80
2022-08-17T18:54:22.636Z,21.70
2022-08-17T18:56:53.030Z,21.50
2022-08-17T18:59:32.066Z,21.50
2022-08-17T19:02:33.647Z,21.50
2022-08-17T19:05:10.920Z,21.40
2022-08-17T19:07:42.264Z,21.30
2022-08-17T19:10:21.741Z,21.30
2022-08-17T19:12:55.084Z,21.30
2022-08-17T19:15:36.317Z,21.30
2022-08-17T19:18:15.137Z,21.40
2022-08-17T19:20:47.655Z,21.30
2022-08-17T19:23:23.687Z,21.30
2022-08-17T19:25:54.761Z,21.30
2022-08-17T19:28:29.707Z,21.30
2022-08-17T19:30:59.630Z,21.30
2022-08-17T19:33:27.859Z,21.20
2022-08-17T19:36:04.193Z,21.20
2022-08-17T19:38:44.867Z,21.10
2022-08-17T19:41:21.650Z,20.90
2022-08-17T19:44:09.435Z,20.80
2022-08-17T19:46:48.650Z,20.60
2022-08-17T19:49:33.281Z,20.50
2022-08-17T19:52:20.388Z,20.60
2022-08-17T19:54:58.858Z,20.60
2022-08-17T19:57:39.266Z,20.60
2022-08-17T20:00:12.018Z,20.60
2022-08-17T20:02:48.670Z,20.60
2022-08-17T20:05:23.603Z,20.60
2022-08-17T20:07:55.906Z,20.60
2022-08-17T20:10:45.090Z,20.60
2022-08-17T20:13:19.539Z,20.60
2022-08-17T20:16:02.177Z,20.50
2022-08-17T20:18:47.451Z,20.50
2022-08-17T20:21:20.657Z,20.40
2022-08-17T20:23:54.258Z,20.10
2022-08-17T20:26:27.579Z,20.00
2022-08-17T20:29:37.497Z,20.00
2022-08-17T20:32:27.251Z,19.90
2022-08-17T20:35:19.091Z,19.90
2022-08-17T20:37:54.765Z,19.90
2022-08-17T20:40:27.215Z,19.70
2022-08-17T20:42:57.087Z,19.70
2022-08-17T20:45:55.972Z,19.70
2022-08-17T20:48:38.110Z,19.70
2022-08-17T20:51:19.861Z,19.60
2022-08-17T20:54:07.590Z,19.50
2022-08-17T20:56:51.073Z,19.30
2022-08-17T20:59:59.724Z,19.00
2022-08-17T21:02:29.221Z,19.00
2022-08-17T21:05:30.067Z,18.80
2022-08-17T21:08:01.940Z,18.70
2022-08-17T21:10:37.310Z,18.60
2022-08-17T21:13:48.626Z,18.60
2022-08-17T21:16:41.247Z,18.60
2022-08-17T21:19:22.846Z,18.60
2022-08-17T21:22:04.141Z,18.40
2022-08-17T21:24:43.533Z,18.30
2022-08-17T21:27:29.250Z,18.20
2022-08-17T21:30:14.875Z,18.20
2022-08-17T21:33:05.935Z,18.10
2022-08-17T21:35:50.085Z,18.10
2022-08-17T21:38:21.415Z,18.00
2022-08-17T21:40:52.711Z,18.10
2022-08-17T21:43:25.422Z,18.20
2022-08-17T21:46:02.164Z,18.30
2022-08-17T21:48:32.633Z,18.40
2022-08-17T21:51:10.439Z,18.50
2022-08-17T21:53:45.406Z,18.60
2022-08-17T21:56:20.872Z,18.60
2022-08-17T21:58:56.699Z,18.50
2022-08-17T22:01:28.073Z,18.50
2022-08-17T22:04:03.234Z,18.40
2022-08-17T22:06:37.510Z,18.40
2022-08-17T22:09:15.318Z,18.30
2022-08-17T22:11:56.679Z,18.30
2022-08-17T22:14:27.258Z,18.20
2022-08-17T22:17:19.777Z,18.20
2022-08-17T22:19:53.299Z,18.10
2022-08-17T22:22:32.460Z,18.30
2022-08-17T22:25:02.445Z,18.50
2022-08-17T22:27:54.996Z,18.60
2022-08-17T22:30:35.460Z,18.70
2022-08-17T22:33:35.362Z,18.70
2022-08-17T22:36:12.414Z,18.60
2022-08-17T22:38:43.510Z,18.60
2022-08-17T22:41:42.438Z,18.50
2022-08-17T22:44:23.136Z,18.40
2022-08-17T22:47:24.891Z,18.30
2022-08-17T22:49:57.572Z,18.30
2022-08-17T22:52:32.709Z,18.20
2022-08-17T22:55:32.339Z,18.20
2022-08-17T22:58:33.418Z,18.20
2022-08-17T23:01:25.804Z,18.30
2022-08-17T23:03:55.360Z,18.20
2022-08-17T23:06:25.130Z,18.20
2022-08-17T23:08:54.846Z,18.20
2022-08-17T23:11:36.911Z,18.30
2022-08-17T23:14:15.636Z,18.30
2022-08-17T23:16:43.763Z,18.20
2022-08-17T23:19:13.326Z,18.10
2022-08-17T23:21:44.721Z,18.10
2022-08-17T23:24:17.963Z,18.20
2022-08-17T23:26:45.863Z,18.20
2022-08-17T23:29:13.821Z,18.30
2022-08-17T23:31:42.228Z,18.40
2022-08-17T23:34:12.438Z,18.40
2022-08-17T23:36:42.075Z,18.40
2022-08-17T23:39:09.972Z,18.40
2022-08-17T23:41:39.940Z,18.40
2022-08-17T23:44:08.245Z,18.30
2022-08-17T23:46:36.644Z,18.20
2022-08-17T23:49:04.671Z,18.10
2022-08-17T23:51:36.644Z,18.00
2022-08-17T23:54:12.587Z,17.90
2022-08-17T23:56:45.515Z,17.80
2022-08-17T23:59:14.159Z,17.80
